Aérodrome :







RETROUVEZ-NOUS SUR...

 
LOGIN :

S'inscrire | Disclaimer

   EN    FR    IT 

 









Légende :    VFR   VFR Marginal   IFR   IFR Intensif   IFR Très Intensif
Visi : 
Plafond : 
>= 8 km
>= 3000ft
5 à 8 km
1000 à 3000 ft
1500m à 5 km
500 à 1000 ft
800 à 1500m
200 à 500 ft
< 800m
< 200 ft
Symboles :   Orages  Brouillard  Fortes neiges  Fortes précipitations  Vent > 20 kt






- Altitude de l'aérodrome : 9 ft


KPVC - Provincetown Municipal

DERNIER METAR :
  • 020656Z AUTO 35021G29KT 10SM -RA OVC011 04/03 A2956 RMK AO2 PK WND 35029/0655 SLP011 P0000 T00440033

METARs EXPIRÉS :
  • 020556Z AUTO 36018G26KT 10SM -RA OVC011 04/03 A2960 RMK AO2 PK WND 36028/0537 CIG 009V014 SLP022 P0000 60000 T00440033 10056 20044 56020
  • 020456Z AUTO 36019G26KT 10SM -RA OVC011 04/03 A2962 RMK AO2 PK WND 01028/0445 SLP028 P0000 T00440033 400560017

TAF N/A



MET'MAP, la Météo Aéronautique d'un coup d'oeil ! - Copyright ORBIFLY Décembre 2007 - Disclaimer

ORBIFLY MET'MAP TEAM :

Programmation & Développement : Alexandra Zaïnal
Sur une idée originale de : Baudouin d'Aumeries
Assistance à la programmation : Marc-Olivier Méhu
Soutien technique & logistique : Manuel Goepfert

Contact : metmap@orbifly.com




SOURCES & CREDITS :

   NOAA